Track Екишев Евгений

Time Latitude Longitude Accuracy (66% radius in meters) Altitude (meters) Speed (km/hour) Bearing (degrees) Battery (%) GPS flag
10:11:00 60.370984 29.556457 6 88.580411287188 0 306.42349243164 85 1 delete
10:10:51 60.370984 29.556457 12 89.202237459312 0 306.42349243164 85 1 delete
10:10:39 60.370979 29.556454 8 90.89536409048 0.17448644340038 306.42349243164 85 1 delete
10:10:27 60.370979 29.556454 8 92.314196872357 0 306.42349243164 85 1 delete
10:10:15 60.370979 29.556454 12 92.809481690818 0 306.42349243164 85 1 delete
10:10:03 60.370979 29.556454 12 92.971852449761 0 306.42349243164 85 1 delete
10:09:54 60.370979 29.556454 8 92.913101945371 0 306.42349243164 85 1 delete
10:09:42 60.370979 29.556454 6 92.950533961888 0 306.42349243164 85 1 delete
10:09:33 60.370979 29.556454 6 93.092671193413 0 306.42349243164 85 1 delete
10:09:21 60.370979 29.556454 8 93.267947389289 0 306.42349243164 85 1 delete
10:09:09 60.370979 29.556454 8 93.414505795218 0 306.42349243164 85 1 delete
10:09:00 60.370979 29.556454 8 93.47373179867 0 306.42349243164 85 1 delete
10:08:48 60.370979 29.556454 8 93.671950701249 0 306.42349243164 85 1 delete
10:08:36 60.370979 29.556454 12 94.27523586284 0 306.42349243164 85 1 delete
10:08:24 60.370979 29.556454 8 94.672329884538 0 306.42349243164 85 1 delete
10:08:12 60.370979 29.556454 6 94.941192489546 0 306.42349243164 85 1 delete
10:08:00 60.370979 29.556454 12 95.011952360473 0 306.42349243164 85 1 delete
10:07:51 60.370979 29.556454 12 94.996603219529 0 306.42349243164 85 1 delete
10:07:39 60.370979 29.556454 12 95.006081935489 0 306.42349243164 85 1 delete
10:07:27 60.370979 29.556454 8 95.063555678258 0 306.42349243164 85 1 delete
10:07:15 60.370979 29.556454 12 95.163082947448 0 306.42349243164 85 1 delete
10:07:06 60.370979 29.556454 6 95.141070269492 0 306.42349243164 85 1 delete
10:06:54 60.370979 29.556454 8 95.239999692217 0 306.42349243164 85 1 delete
10:06:42 60.370979 29.556454 8 95.473854158094 0 306.42349243164 85 1 delete
10:06:30 60.370973 29.556467 12 96.319709429877 0.19240115582943 285.36218261719 85 1 delete
10:06:18 60.370973 29.556467 16 96.737595737584 0.40772080421448 285.36218261719 85 1 delete
10:05:57 60.371007 29.556533 24 96.026512089249 0.18617667257786 285.36218261719 85 1 delete
10:05:51 60.371006 29.556541 8 95.640671802177 0.2195551097393 285.36218261719 85 1 delete
10:05:45 60.370977 29.556561 8 95.70573764764 0.025310933589935 307.64202880859 85 1 delete
10:05:39 60.370957 29.556574 12 95.942274269623 0.94211530685425 307.64202880859 85 1 delete
10:05:36 60.370922 29.556633 16 96.458569380727 1.0435303449631 301.34552001953 85 1 delete
10:05:33 60.370901 29.556697 16 97.278699973794 1.2352528572083 337.8157043457 85 1 delete
10:05:30 60.370877 29.556759 8 97.897577453426 0.92088156938553 325.13409423828 85 1 delete
10:05:24 60.370816 29.556894 8 98.909097222872 1.4150278568268 288.07266235352 85 1 delete
10:05:21 60.370782 29.556986 8 99.45899970553 1.340204834938 10.959530830383 85 1 delete
10:05:12 60.370736 29.557045 12 99.930484437746 0.4269787967205 31.456468582153 85 1 delete
10:05:06 60.370746 29.557069 8 100.84113065674 4.8584017753601 312.73809814453 85 1 delete
10:05:03 60.370716 29.557202 12 103.18468727286 5.0177173614502 311.50729370117 85 1 delete
10:05:00 60.370689 29.557386 12 103.99496942373 4.9577431678772 252.94702148438 85 1 delete
10:04:57 60.370807 29.557505 8 105.30091633048 4.9435005187988 174.40954589844 85 1 delete
10:04:54 60.370955 29.557395 12 108.14919444395 4.7010507583618 141.28385925293 85 1 delete
10:04:51 60.371067 29.557242 8 112.22930529272 4.637246131897 144.34576416016 85 1 delete
10:04:48 60.371124 29.557201 12 114.39783785679 0 178.88359069824 85 1 delete
10:04:45 60.371127 29.557327 8 115.80099817407 4.889271736145 289.83364868164 85 1 delete
10:04:42 60.371012 29.557695 12 115.18143571495 4.8354787826538 298.19458007812 85 1 delete
10:04:39 60.370919 29.557962 8 113.60703709881 4.7825922966003 330.24865722656 85 1 delete
10:04:36 60.370773 29.558176 8 114.93665312042 4.6450223922729 308.06216430664 85 1 delete
10:04:33 60.370613 29.558439 8 114.31369772762 4.3065185546875 325.17449951172 85 1 delete
10:04:30 60.370410 29.558549 12 115.85514128415 3.9088115692139 347.57217407227 85 1 delete
10:04:27 60.370223 29.558671 8 116.3411498326 3.1577382087708 324.75299072266 85 1 delete